createdAt,value
2019-01-25T00:02:44.315Z,-1.70
2019-01-25T00:05:48.764Z,-1.70
2019-01-25T00:08:53.202Z,-1.80
2019-01-25T00:11:57.947Z,-1.60
2019-01-25T00:15:02.404Z,-1.50
2019-01-25T00:18:07.504Z,-1.40
2019-01-25T00:21:11.953Z,-1.40
2019-01-25T00:24:16.391Z,-1.40
2019-01-25T00:27:20.907Z,-1.30
2019-01-25T00:30:25.424Z,-1.30
2019-01-25T00:33:29.891Z,-1.30
2019-01-25T00:36:34.345Z,-1.30
2019-01-25T00:39:39.197Z,-1.40
2019-01-25T00:42:43.937Z,-1.40
2019-01-25T00:45:48.396Z,-1.40
2019-01-25T00:48:52.859Z,-1.30
2019-01-25T00:51:57.323Z,-1.40
2019-01-25T00:55:01.775Z,-1.40
2019-01-25T00:58:06.873Z,-1.40
2019-01-25T01:01:11.706Z,-1.50
2019-01-25T01:04:16.436Z,-1.50
2019-01-25T01:07:20.967Z,-1.50
2019-01-25T01:10:25.700Z,-1.50
2019-01-25T01:13:30.149Z,-1.60
2019-01-25T01:16:34.976Z,-1.60
2019-01-25T01:19:39.394Z,-1.70
2019-01-25T01:22:43.849Z,-1.70
2019-01-25T01:25:48.737Z,-1.70
2019-01-25T01:28:53.453Z,-1.70
2019-01-25T01:31:57.912Z,-1.70
2019-01-25T01:35:02.610Z,-1.70
2019-01-25T01:38:07.407Z,-1.80
2019-01-25T01:41:11.874Z,-1.90
2019-01-25T01:44:16.316Z,-1.80
2019-01-25T01:47:21.017Z,-1.90
2019-01-25T01:50:25.466Z,-2.00
2019-01-25T01:53:29.926Z,-2.10
2019-01-25T01:56:34.413Z,-2.10
2019-01-25T01:59:39.120Z,-2.20
2019-01-25T02:02:43.592Z,-2.30
2019-01-25T02:05:48.031Z,-2.20
2019-01-25T02:08:52.796Z,-2.10
2019-01-25T02:11:57.270Z,-2.10
2019-01-25T02:15:01.709Z,-2.10
2019-01-25T02:18:06.335Z,-2.10
2019-01-25T02:21:11.208Z,-2.00
2019-01-25T02:24:15.940Z,-2.00
2019-01-25T02:27:20.401Z,-1.90
2019-01-25T02:30:26.608Z,-2.00
2019-01-25T02:33:31.052Z,-2.10
2019-01-25T02:36:35.512Z,-2.10
2019-01-25T02:39:39.956Z,-2.10
2019-01-25T02:42:44.574Z,-2.10
2019-01-25T02:45:49.361Z,-2.10
2019-01-25T02:48:54.042Z,-1.90
2019-01-25T02:51:58.842Z,-2.00
2019-01-25T02:55:03.284Z,-2.00
2019-01-25T02:58:07.833Z,-2.00
2019-01-25T03:01:12.243Z,-2.10
2019-01-25T03:04:16.688Z,-1.90
2019-01-25T03:07:21.449Z,-2.00
2019-01-25T03:10:28.931Z,-1.90
2019-01-25T03:13:32.337Z,-1.90
2019-01-25T03:16:37.082Z,-1.90
2019-01-25T03:19:41.521Z,-1.90
2019-01-25T03:22:46.015Z,-2.00
2019-01-25T03:25:50.463Z,-2.10
2019-01-25T03:28:54.912Z,-2.00
2019-01-25T03:31:59.366Z,-2.10
2019-01-25T03:35:05.246Z,-2.10
2019-01-25T03:38:09.695Z,-2.10
2019-01-25T03:41:14.521Z,-2.10
2019-01-25T03:44:18.984Z,-2.20
2019-01-25T03:47:23.439Z,-2.30
2019-01-25T03:50:30.287Z,-2.30
2019-01-25T03:53:34.736Z,-2.40
2019-01-25T03:56:39.210Z,-2.70
2019-01-25T03:59:43.662Z,-2.90
2019-01-25T04:02:48.460Z,-3.00
2019-01-25T04:05:52.884Z,-3.20
2019-01-25T04:08:57.342Z,-3.40
2019-01-25T04:12:02.124Z,-3.60
2019-01-25T04:15:13.841Z,-3.70
2019-01-25T04:18:18.290Z,-3.80
2019-01-25T04:21:22.730Z,-3.90
2019-01-25T04:24:27.180Z,-4.00
2019-01-25T04:27:31.926Z,-3.90
2019-01-25T04:30:36.692Z,-3.90
2019-01-25T04:33:41.385Z,-4.00
2019-01-25T04:36:45.826Z,-4.00
2019-01-25T04:39:50.284Z,-4.00
2019-01-25T04:42:54.909Z,-3.90
2019-01-25T04:45:59.348Z,-3.90
2019-01-25T04:49:04.126Z,-4.00
2019-01-25T04:52:13.403Z,-4.00
2019-01-25T04:55:32.765Z,-4.00
2019-01-25T04:58:37.196Z,-3.90
2019-01-25T05:01:41.637Z,-3.80
2019-01-25T05:04:46.086Z,-3.60
2019-01-25T05:07:50.537Z,-3.50
2019-01-25T05:10:55.255Z,-3.30
2019-01-25T05:13:59.716Z,-3.30
2019-01-25T05:17:04.279Z,-3.30
2019-01-25T05:20:09.571Z,-3.30
2019-01-25T05:23:14.287Z,-3.40
2019-01-25T05:26:18.867Z,-3.40
2019-01-25T05:29:26.191Z,-3.40
2019-01-25T05:32:30.929Z,-3.40
2019-01-25T05:35:37.417Z,-3.30
2019-01-25T05:38:46.196Z,-3.20
2019-01-25T05:41:52.909Z,-3.10
2019-01-25T05:44:57.640Z,-3.00
2019-01-25T05:48:02.375Z,-2.90
2019-01-25T05:51:07.357Z,-3.10
2019-01-25T05:54:11.851Z,-3.40
2019-01-25T05:57:16.293Z,-3.50
2019-01-25T06:00:25.623Z,-3.40
2019-01-25T06:03:30.067Z,-3.20
2019-01-25T06:06:34.512Z,-3.20
2019-01-25T06:09:39.284Z,-3.10
2019-01-25T06:12:43.735Z,-2.90
2019-01-25T06:15:48.187Z,-2.70
2019-01-25T06:18:52.632Z,-2.70
2019-01-25T06:21:57.901Z,-2.70
2019-01-25T06:25:02.358Z,-2.60
2019-01-25T06:28:07.968Z,-2.50
2019-01-25T06:31:14.540Z,-2.60
2019-01-25T06:34:18.994Z,-2.70
2019-01-25T06:37:23.694Z,-2.80
2019-01-25T06:40:28.424Z,-2.90
2019-01-25T06:43:32.864Z,-2.90
2019-01-25T06:46:37.323Z,-2.90
2019-01-25T06:49:41.775Z,-3.00
2019-01-25T06:52:46.523Z,-3.00
2019-01-25T06:55:50.969Z,-3.00
2019-01-25T06:58:57.315Z,-3.00
2019-01-25T07:02:03.638Z,-3.00
2019-01-25T07:05:09.494Z,-3.10
2019-01-25T07:08:15.912Z,-3.20
2019-01-25T07:11:20.356Z,-3.30
2019-01-25T07:14:24.815Z,-3.20
2019-01-25T07:17:29.263Z,-3.20
2019-01-25T07:20:33.710Z,-3.00
2019-01-25T07:23:38.440Z,-2.90
2019-01-25T07:26:42.893Z,-2.90
2019-01-25T07:29:47.598Z,-2.90
2019-01-25T07:32:52.111Z,-2.90
2019-01-25T07:35:56.959Z,-2.70
2019-01-25T07:39:04.832Z,-2.80
2019-01-25T07:42:09.619Z,-2.80
2019-01-25T07:45:15.504Z,-2.80
2019-01-25T07:48:20.155Z,-2.70
2019-01-25T07:51:24.914Z,-2.80
2019-01-25T07:54:29.762Z,-2.90
2019-01-25T07:57:34.680Z,-3.00
2019-01-25T08:00:39.156Z,-3.00
2019-01-25T08:03:43.829Z,-3.10
2019-01-25T08:06:48.286Z,-3.00
2019-01-25T08:09:52.985Z,-3.00
2019-01-25T08:12:57.486Z,-2.90
2019-01-25T08:16:03.124Z,-2.80
2019-01-25T08:19:07.582Z,-2.70
2019-01-25T08:22:12.445Z,-2.60
2019-01-25T08:25:17.457Z,-2.50
2019-01-25T08:28:22.192Z,-2.40
2019-01-25T08:31:26.646Z,-2.30
2019-01-25T08:34:31.341Z,-2.40
2019-01-25T08:37:35.800Z,-2.40
2019-01-25T08:40:41.964Z,-2.20
2019-01-25T08:43:46.581Z,-2.00
2019-01-25T08:46:50.986Z,-1.90
2019-01-25T08:49:57.874Z,-1.60
2019-01-25T08:53:01.932Z,-1.40
2019-01-25T08:56:06.406Z,-1.40
2019-01-25T08:59:10.884Z,-1.30
2019-01-25T09:02:15.296Z,-1.30
2019-01-25T09:05:20.474Z,-1.20
2019-01-25T09:08:24.928Z,-1.20
2019-01-25T09:11:29.374Z,-0.90
2019-01-25T09:14:33.824Z,-0.70
2019-01-25T09:17:38.279Z,-0.50
2019-01-25T09:20:42.727Z,-0.40
2019-01-25T09:23:47.445Z,-0.30
2019-01-25T09:26:51.891Z,-0.20
2019-01-25T09:29:56.326Z,0.10
2019-01-25T09:33:00.775Z,0.20
2019-01-25T09:36:05.334Z,0.40
2019-01-25T09:39:10.021Z,0.60
2019-01-25T09:42:14.699Z,0.60
2019-01-25T09:45:19.133Z,0.80
2019-01-25T09:48:23.857Z,0.90
2019-01-25T09:51:28.287Z,1.10
2019-01-25T09:54:33.011Z,1.40
2019-01-25T09:57:37.741Z,1.40
2019-01-25T10:00:56.701Z,1.40
2019-01-25T10:04:01.141Z,1.30
2019-01-25T10:07:05.738Z,1.30
2019-01-25T10:10:11.127Z,1.30
2019-01-25T10:13:15.570Z,1.20
2019-01-25T10:16:20.011Z,1.10
2019-01-25T10:19:24.779Z,1.10
2019-01-25T10:22:29.224Z,1.10
2019-01-25T10:25:33.656Z,1.20
2019-01-25T10:28:38.357Z,1.30
2019-01-25T10:31:42.797Z,1.30
2019-01-25T10:34:47.510Z,1.40
2019-01-25T10:37:53.157Z,1.50
2019-01-25T10:40:57.587Z,1.60
2019-01-25T10:44:02.045Z,1.60
2019-01-25T10:47:06.750Z,1.60
2019-01-25T10:50:11.678Z,1.50
2019-01-25T10:53:16.125Z,1.60
2019-01-25T10:56:20.556Z,1.60
2019-01-25T10:59:25.257Z,1.60
2019-01-25T11:02:29.684Z,1.60
2019-01-25T11:05:34.196Z,1.50
2019-01-25T11:08:38.939Z,1.40
2019-01-25T11:11:43.380Z,1.50
2019-01-25T11:14:47.824Z,1.70
2019-01-25T11:17:52.431Z,1.80
2019-01-25T11:20:56.872Z,1.70
2019-01-25T11:24:01.570Z,1.70
2019-01-25T11:27:06.302Z,1.70
2019-01-25T11:30:15.464Z,1.70
2019-01-25T11:33:19.896Z,1.60
2019-01-25T11:36:24.336Z,1.60
2019-01-25T11:39:29.120Z,1.60
2019-01-25T11:42:33.553Z,1.50
2019-01-25T11:45:38.069Z,1.50
2019-01-25T11:48:42.508Z,1.50
2019-01-25T11:51:47.218Z,1.40
2019-01-25T11:54:51.660Z,1.40
2019-01-25T11:57:56.375Z,1.30
2019-01-25T12:01:00.818Z,1.50
2019-01-25T12:04:07.578Z,1.60
2019-01-25T12:07:12.003Z,1.80
2019-01-25T12:10:20.624Z,2.00
2019-01-25T12:13:25.508Z,2.10
2019-01-25T12:16:30.198Z,2.10
2019-01-25T12:19:34.666Z,2.00
2019-01-25T12:22:39.528Z,1.80
2019-01-25T12:25:44.072Z,1.70
2019-01-25T12:28:49.104Z,1.70
2019-01-25T12:31:53.626Z,1.70
2019-01-25T12:34:58.071Z,1.60
2019-01-25T12:38:02.785Z,1.60
2019-01-25T12:41:07.637Z,1.50
2019-01-25T12:44:12.057Z,1.50
2019-01-25T12:47:16.771Z,1.50
2019-01-25T12:50:28.442Z,1.40
2019-01-25T12:53:34.320Z,1.40
2019-01-25T12:56:39.050Z,1.30
2019-01-25T12:59:43.785Z,1.30
2019-01-25T13:02:48.219Z,1.40
2019-01-25T13:05:52.798Z,1.50
2019-01-25T13:08:57.234Z,1.50
2019-01-25T13:12:01.668Z,1.60
2019-01-25T13:15:09.328Z,1.50
2019-01-25T13:18:13.928Z,1.50
2019-01-25T13:21:18.373Z,1.50
2019-01-25T13:24:22.809Z,1.50
2019-01-25T13:27:27.241Z,1.60
2019-01-25T13:30:32.619Z,1.50
2019-01-25T13:33:37.464Z,1.50
2019-01-25T13:36:41.902Z,1.60
2019-01-25T13:39:46.351Z,1.80
2019-01-25T13:42:50.781Z,2.00
2019-01-25T13:45:55.219Z,2.20
2019-01-25T13:48:59.650Z,2.40
2019-01-25T13:52:04.092Z,2.40
2019-01-25T13:55:12.061Z,2.30
2019-01-25T13:58:16.491Z,2.20
2019-01-25T14:01:21.269Z,2.20
2019-01-25T14:04:25.711Z,2.20
2019-01-25T14:07:30.433Z,2.20
2019-01-25T14:10:36.985Z,2.10
2019-01-25T14:13:46.686Z,2.20
2019-01-25T14:16:47.890Z,2.20
2019-01-25T14:19:52.619Z,2.20
2019-01-25T14:22:57.049Z,2.10
2019-01-25T14:26:01.492Z,2.10
2019-01-25T14:29:07.165Z,2.10
2019-01-25T14:32:11.672Z,2.00
2019-01-25T14:35:16.119Z,2.00
2019-01-25T14:38:20.805Z,1.90
2019-01-25T14:41:25.250Z,1.90
2019-01-25T14:44:29.958Z,1.90
2019-01-25T14:47:34.408Z,1.80
2019-01-25T14:50:39.109Z,1.80
2019-01-25T14:53:43.841Z,1.60
2019-01-25T14:56:48.580Z,1.50
2019-01-25T14:59:53.305Z,1.50
2019-01-25T15:02:57.754Z,1.40
2019-01-25T15:06:02.194Z,1.40
2019-01-25T15:09:09.508Z,1.40
2019-01-25T15:12:13.953Z,1.50
2019-01-25T15:15:18.379Z,1.50
2019-01-25T15:18:23.120Z,1.60
2019-01-25T15:21:27.564Z,1.60
2019-01-25T15:24:31.998Z,1.60
2019-01-25T15:27:36.695Z,1.60
2019-01-25T15:30:41.142Z,1.40
2019-01-25T15:33:45.852Z,1.30
2019-01-25T15:36:50.285Z,1.40
2019-01-25T15:39:54.874Z,1.50
2019-01-25T15:42:59.317Z,1.50
2019-01-25T15:46:03.755Z,1.50
2019-01-25T15:49:08.188Z,1.50
2019-01-25T15:52:12.908Z,1.40
2019-01-25T15:55:18.373Z,1.40
2019-01-25T15:58:23.084Z,1.40
2019-01-25T16:01:27.819Z,1.40
2019-01-25T16:04:34.939Z,1.40
2019-01-25T16:07:39.022Z,1.40
2019-01-25T16:10:43.746Z,1.30
2019-01-25T16:13:49.831Z,1.30
2019-01-25T16:16:54.743Z,1.30
2019-01-25T16:19:59.173Z,1.20
2019-01-25T16:23:03.681Z,1.10
2019-01-25T16:26:08.424Z,1.20
2019-01-25T16:29:12.861Z,1.20
2019-01-25T16:32:17.580Z,1.20
2019-01-25T16:35:22.317Z,1.20
2019-01-25T16:38:27.037Z,1.20
2019-01-25T16:41:31.782Z,1.30
2019-01-25T16:44:36.369Z,1.30
2019-01-25T16:47:41.235Z,1.20
2019-01-25T16:50:45.675Z,1.30
2019-01-25T16:53:50.118Z,1.20
2019-01-25T16:56:54.893Z,1.20
2019-01-25T16:59:59.648Z,1.30
2019-01-25T17:03:04.498Z,1.20
2019-01-25T17:06:09.096Z,1.10
2019-01-25T17:09:13.842Z,1.00
2019-01-25T17:12:18.273Z,1.00
2019-01-25T17:15:22.991Z,1.10
2019-01-25T17:18:27.719Z,1.20
2019-01-25T17:21:32.153Z,1.30
2019-01-25T17:24:37.246Z,1.30
2019-01-25T17:27:41.912Z,1.30
2019-01-25T17:30:46.648Z,1.40
2019-01-25T17:33:51.101Z,1.40
2019-01-25T17:36:55.616Z,1.50
2019-01-25T17:40:00.451Z,1.50
2019-01-25T17:43:05.446Z,1.50
2019-01-25T17:46:10.201Z,1.50
2019-01-25T17:49:14.773Z,1.60
2019-01-25T17:52:19.658Z,1.60
2019-01-25T17:55:24.287Z,1.60
2019-01-25T17:58:28.915Z,1.50
2019-01-25T18:01:33.351Z,1.50
2019-01-25T18:04:38.005Z,1.40
2019-01-25T18:07:44.239Z,1.40
2019-01-25T18:10:49.147Z,1.40
2019-01-25T18:13:53.555Z,1.40
2019-01-25T18:16:58.633Z,1.40
2019-01-25T18:20:03.255Z,1.40
2019-01-25T18:23:07.674Z,1.40
2019-01-25T18:26:12.186Z,1.50
2019-01-25T18:29:17.047Z,1.50
2019-01-25T18:32:21.840Z,1.50
2019-01-25T18:35:26.299Z,1.40
2019-01-25T18:38:31.028Z,1.30
2019-01-25T18:41:35.505Z,1.30
2019-01-25T18:44:39.936Z,1.30
2019-01-25T18:47:44.435Z,1.40
2019-01-25T18:50:49.134Z,1.50
2019-01-25T18:53:53.868Z,1.50
2019-01-25T18:56:58.702Z,1.50
2019-01-25T19:00:03.422Z,1.50
2019-01-25T19:03:08.146Z,1.50
2019-01-25T19:06:12.889Z,1.50
2019-01-25T19:09:17.563Z,1.40
2019-01-25T19:12:22.509Z,1.40
2019-01-25T19:15:30.767Z,1.40
2019-01-25T19:18:35.515Z,1.40
2019-01-25T19:21:39.956Z,1.50
2019-01-25T19:24:44.397Z,1.50
2019-01-25T19:27:48.951Z,1.50
2019-01-25T19:30:54.429Z,1.50
2019-01-25T19:33:58.851Z,1.50
2019-01-25T19:37:03.299Z,1.50
2019-01-25T19:40:30.428Z,1.50
2019-01-25T19:43:34.864Z,1.50
2019-01-25T19:46:39.306Z,1.50
2019-01-25T19:49:44.007Z,1.60
2019-01-25T19:52:48.734Z,1.60
2019-01-25T19:55:53.167Z,1.50
2019-01-25T19:58:57.603Z,1.50
2019-01-25T20:02:02.314Z,1.50
2019-01-25T20:05:11.838Z,1.40
2019-01-25T20:08:16.346Z,1.50
2019-01-25T20:11:21.105Z,1.50
2019-01-25T20:14:27.439Z,1.50
2019-01-25T20:17:32.205Z,1.50
2019-01-25T20:20:39.811Z,1.60
2019-01-25T20:23:44.290Z,1.60
2019-01-25T20:26:49.067Z,1.60
2019-01-25T20:29:53.801Z,1.60
2019-01-25T20:32:59.081Z,1.60
2019-01-25T20:36:03.585Z,1.60
2019-01-25T20:39:08.862Z,1.60
2019-01-25T20:42:13.903Z,1.50
2019-01-25T20:45:27.285Z,1.50
2019-01-25T20:48:33.432Z,1.50
2019-01-25T20:51:38.134Z,1.50
2019-01-25T20:54:42.551Z,1.50
2019-01-25T20:57:47.237Z,1.50
2019-01-25T21:00:52.032Z,1.60
2019-01-25T21:03:56.463Z,1.60
2019-01-25T21:07:00.965Z,1.60
2019-01-25T21:10:10.254Z,1.50
2019-01-25T21:13:14.691Z,1.60
2019-01-25T21:16:19.162Z,1.50
2019-01-25T21:19:23.919Z,1.50
2019-01-25T21:22:28.661Z,1.40
2019-01-25T21:25:33.427Z,1.40
2019-01-25T21:28:37.861Z,1.50
2019-01-25T21:31:42.566Z,1.50
2019-01-25T21:34:47.273Z,1.50
2019-01-25T21:37:51.757Z,1.50
2019-01-25T21:40:56.181Z,1.50
2019-01-25T21:44:00.947Z,1.50
2019-01-25T21:47:05.888Z,1.60
2019-01-25T21:50:28.615Z,1.60
2019-01-25T21:53:33.049Z,1.60
2019-01-25T21:56:37.796Z,1.60
2019-01-25T21:59:42.323Z,1.50
2019-01-25T22:02:46.781Z,1.60
2019-01-25T22:05:51.205Z,1.60
2019-01-25T22:08:55.966Z,1.60
2019-01-25T22:12:00.417Z,1.70
2019-01-25T22:15:07.900Z,1.70
2019-01-25T22:18:12.873Z,1.70
2019-01-25T22:21:17.303Z,1.70
2019-01-25T22:24:22.138Z,1.60
2019-01-25T22:27:26.849Z,1.70
2019-01-25T22:30:31.352Z,1.60
2019-01-25T22:33:36.107Z,1.60
2019-01-25T22:36:40.843Z,1.60
2019-01-25T22:39:45.292Z,1.50
2019-01-25T22:42:50.001Z,1.50
2019-01-25T22:45:58.730Z,1.50
2019-01-25T22:49:00.647Z,1.50
2019-01-25T22:52:05.345Z,1.50
2019-01-25T22:55:14.431Z,1.50
2019-01-25T22:58:19.167Z,1.50
2019-01-25T23:01:25.607Z,1.50
2019-01-25T23:04:34.748Z,1.60
2019-01-25T23:07:39.197Z,1.60
2019-01-25T23:10:43.927Z,1.60
2019-01-25T23:13:48.376Z,1.60
2019-01-25T23:16:52.977Z,1.50
2019-01-25T23:19:57.414Z,1.50
2019-01-25T23:23:01.838Z,1.50
2019-01-25T23:26:06.281Z,1.50
2019-01-25T23:29:10.714Z,1.50
2019-01-25T23:32:15.144Z,1.40
2019-01-25T23:35:19.576Z,1.40
2019-01-25T23:38:24.007Z,1.40
2019-01-25T23:41:28.447Z,1.50
2019-01-25T23:44:33.204Z,1.50
2019-01-25T23:47:37.945Z,1.50
2019-01-25T23:50:42.372Z,1.50
2019-01-25T23:53:46.820Z,1.50
2019-01-25T23:56:51.615Z,1.50
2019-01-25T23:59:56.342Z,1.50
